Time;durP1;ratioP1;P1;durP2;ratioP2;P2;SDS_P1;SDS_P2;PMS_P1;PMS_P2;Temp;Humidity;BMP_temperature;BMP_pressure;BME280_temperature;BME280_humidity;BME280_pressure;Samples;Min_cycle;Max_cycle;Signal;HPM_P1;HPM_P2
2022/06/26 00:01:10;;;;;;;15.50;13.67;;;;;;;;;;5031611;28;20883;-76
2022/06/26 00:03:36;;;;;;;15.07;13.03;;;;;;;;;;5031011;28;20426;-76
2022/06/26 00:06:02;;;;;;;15.03;13.53;;;;;;;;;;5032587;28;20844;-77
2022/06/26 00:08:28;;;;;;;13.63;12.20;;;;;;;;;;5032594;28;20413;-78
2022/06/26 00:10:54;;;;;;;15.20;12.27;;;;;;;;;;5032651;28;20459;-77
2022/06/26 00:13:20;;;;;;;13.37;11.43;;;;;;;;;;5032323;28;20754;-77
2022/06/26 00:15:46;;;;;;;14.80;13.33;;;;;;;;;;5032482;28;20523;-76
2022/06/26 00:18:12;;;;;;;15.67;14.10;;;;;;;;;;5032572;28;20413;-77
2022/06/26 00:20:38;;;;;;;16.77;14.13;;;;;;;;;;5032692;28;20888;-78
2022/06/26 00:23:04;;;;;;;14.40;13.03;;;;;;;;;;5032249;28;20413;-77
2022/06/26 00:25:31;;;;;;;14.77;13.30;;;;;;;;;;5032366;28;20789;-77
2022/06/26 00:27:57;;;;;;;14.30;12.77;;;;;;;;;;5031162;28;20400;-78
2022/06/26 00:30:23;;;;;;;20.23;13.97;;;;;;;;;;5032502;28;20756;-77
2022/06/26 00:32:49;;;;;;;17.30;14.70;;;;;;;;;;5032225;28;20434;-78
2022/06/26 00:35:15;;;;;;;21.90;14.60;;;;;;;;;;5031995;28;20859;-78
2022/06/26 00:37:41;;;;;;;18.63;15.37;;;;;;;;;;5032509;28;20415;-77
2022/06/26 00:40:08;;;;;;;20.43;15.37;;;;;;;;;;5034803;28;20487;-76
2022/06/26 00:42:34;;;;;;;18.97;15.83;;;;;;;;;;5036410;28;20487;-77
2022/06/26 00:45:00;;;;;;;16.93;14.50;;;;;;;;;;5035938;28;20520;-77
2022/06/26 00:47:26;;;;;;;16.73;14.80;;;;;;;;;;5034879;28;20502;-77
2022/06/26 00:49:53;;;;;;;17.57;15.63;;;;;;;;;;5036305;28;20390;-77
2022/06/26 00:52:19;;;;;;;21.40;16.63;;;;;;;;;;5036122;28;20426;-77
2022/06/26 00:54:46;;;;;;;18.97;16.97;;;;;;;;;;5035853;28;20399;-77
2022/06/26 00:57:12;;;;;;;21.03;17.60;;;;;;;;;;5036178;28;20437;-77
2022/06/26 00:59:39;;;;;;;19.50;16.47;;;;;;;;;;5035817;28;20412;-77
2022/06/26 01:02:05;;;;;;;17.67;16.00;;;;;;;;;;5034571;28;20388;-78
2022/06/26 01:04:31;;;;;;;19.47;17.47;;;;;;;;;;5035762;28;20959;-77
2022/06/26 01:06:57;;;;;;;20.00;16.70;;;;;;;;;;5035977;28;20781;-77
2022/06/26 01:09:23;;;;;;;27.17;18.00;;;;;;;;;;5035927;28;20503;-77
2022/06/26 01:11:50;;;;;;;20.83;17.10;;;;;;;;;;5035814;28;20851;-77
2022/06/26 01:14:17;;;;;;;18.87;17.03;;;;;;;;;;5035100;28;20413;-77
2022/06/26 01:16:43;;;;;;;19.30;16.63;;;;;;;;;;5035646;28;20464;-77
2022/06/26 01:19:10;;;;;;;23.60;18.40;;;;;;;;;;5035955;28;20428;-76
2022/06/26 01:21:36;;;;;;;19.83;16.27;;;;;;;;;;5035892;28;20395;-77
2022/06/26 01:24:03;;;;;;;17.87;15.80;;;;;;;;;;5035326;28;20476;-77
2022/06/26 01:26:29;;;;;;;19.60;17.50;;;;;;;;;;5035475;28;20425;-77
2022/06/26 01:28:55;;;;;;;19.30;16.40;;;;;;;;;;5035529;28;20395;-76
2022/06/26 01:31:21;;;;;;;25.97;17.90;;;;;;;;;;5035337;28;20751;-76
2022/06/26 01:33:48;;;;;;;22.03;16.80;;;;;;;;;;5035213;28;20500;-77
2022/06/26 01:36:14;;;;;;;20.87;16.53;;;;;;;;;;5035339;28;20923;-77
2022/06/26 01:38:40;;;;;;;18.10;16.30;;;;;;;;;;5035190;28;20465;-77
2022/06/26 01:41:06;;;;;;;21.03;17.10;;;;;;;;;;5035272;28;20441;-77
2022/06/26 01:43:33;;;;;;;20.33;15.20;;;;;;;;;;5035164;28;20433;-77
2022/06/26 01:46:00;;;;;;;23.27;15.80;;;;;;;;;;5033805;28;20441;-77
2022/06/26 01:48:26;;;;;;;23.27;18.00;;;;;;;;;;5035298;28;20413;-77
2022/06/26 01:50:53;;;;;;;21.27;16.97;;;;;;;;;;5033813;28;20487;-77
2022/06/26 01:53:19;;;;;;;25.87;18.30;;;;;;;;;;5034825;28;20394;-77
2022/06/26 01:55:45;;;;;;;23.90;16.83;;;;;;;;;;5034834;28;20475;-77
2022/06/26 01:58:11;;;;;;;20.97;17.40;;;;;;;;;;5034658;28;20408;-77
2022/06/26 02:00:38;;;;;;;19.53;15.43;;;;;;;;;;5034725;28;20387;-77
2022/06/26 02:03:05;;;;;;;21.80;16.33;;;;;;;;;;5034432;28;20453;-76
2022/06/26 02:05:31;;;;;;;19.53;15.30;;;;;;;;;;5034615;28;20858;-76
2022/06/26 02:07:57;;;;;;;21.47;15.90;;;;;;;;;;5034964;28;20424;-77
2022/06/26 02:15:53;;;;;;;24.00;15.47;;;;;;;;;;5034637;28;20500;-76
2022/06/26 02:18:20;;;;;;;27.43;16.17;;;;;;;;;;5034921;28;20912;-77
2022/06/26 02:20:46;;;;;;;24.20;17.50;;;;;;;;;;5034543;28;20413;-78
2022/06/26 02:23:13;;;;;;;18.63;15.53;;;;;;;;;;5034266;28;20409;-78
2022/06/26 02:25:39;;;;;;;22.37;16.70;;;;;;;;;;5034480;28;20416;-77
2022/06/26 02:28:06;;;;;;;20.30;15.40;;;;;;;;;;5034409;28;20475;-77
2022/06/26 02:30:32;;;;;;;20.80;15.50;;;;;;;;;;5034475;28;20409;-77
2022/06/26 02:32:58;;;;;;;20.70;14.93;;;;;;;;;;5032582;28;20484;-77
2022/06/26 02:35:24;;;;;;;17.37;15.30;;;;;;;;;;5032912;28;20447;-77
2022/06/26 02:37:51;;;;;;;16.10;14.40;;;;;;;;;;5034385;28;20497;-76
2022/06/26 02:40:19;;;;;;;21.17;15.90;;;;;;;;;;5032862;28;20892;-77
2022/06/26 02:42:45;;;;;;;29.40;17.43;;;;;;;;;;5034130;28;20388;-77
2022/06/26 02:45:11;;;;;;;24.30;15.70;;;;;;;;;;5033784;28;20515;-77
2022/06/26 02:47:38;;;;;;;20.00;14.30;;;;;;;;;;5034107;28;20412;-77
2022/06/26 02:50:04;;;;;;;31.43;16.57;;;;;;;;;;5033672;28;20380;-76
2022/06/26 02:52:31;;;;;;;25.43;18.23;;;;;;;;;;5033717;28;20897;-77
2022/06/26 02:54:57;;;;;;;26.37;15.67;;;;;;;;;;5033554;28;20462;-78
2022/06/26 02:57:23;;;;;;;24.80;16.20;;;;;;;;;;5033796;28;20432;-77
2022/06/26 02:59:49;;;;;;;29.10;15.93;;;;;;;;;;5033852;28;20383;-77
2022/06/26 03:02:15;;;;;;;22.17;16.40;;;;;;;;;;5033382;28;20392;-77
2022/06/26 03:04:42;;;;;;;29.50;16.97;;;;;;;;;;5033263;28;20400;-76
2022/06/26 03:07:08;;;;;;;25.20;16.43;;;;;;;;;;5033514;28;20398;-76
2022/06/26 03:09:34;;;;;;;19.60;15.10;;;;;;;;;;5033506;28;20400;-76
2022/06/26 03:12:00;;;;;;;18.13;14.07;;;;;;;;;;5033627;28;20463;-77
2022/06/26 03:14:26;;;;;;;20.00;14.37;;;;;;;;;;5032952;28;20423;-77
2022/06/26 03:16:53;;;;;;;16.37;13.93;;;;;;;;;;5033313;28;20431;-77
2022/06/26 03:19:19;;;;;;;16.43;11.20;;;;;;;;;;5033168;28;20471;-77
2022/06/26 03:21:45;;;;;;;16.27;12.60;;;;;;;;;;5032313;28;20407;-77
2022/06/26 03:24:11;;;;;;;19.87;13.43;;;;;;;;;;5033109;28;20387;-77
2022/06/26 03:26:38;;;;;;;16.07;12.63;;;;;;;;;;5033163;28;20897;-77
2022/06/26 03:29:07;;;;;;;12.07;10.20;;;;;;;;;;5033418;28;20384;-78
2022/06/26 03:31:33;;;;;;;11.40;8.50;;;;;;;;;;5033230;28;20400;-77
2022/06/26 03:34:00;;;;;;;12.20;8.57;;;;;;;;;;5031603;28;20426;-77
2022/06/26 03:36:26;;;;;;;11.30;8.23;;;;;;;;;;5033069;28;20462;-76
2022/06/26 03:38:53;;;;;;;11.07;7.83;;;;;;;;;;5033167;28;20383;-77
2022/06/26 03:41:19;;;;;;;8.70;6.23;;;;;;;;;;5032956;28;20412;-77
2022/06/26 03:43:45;;;;;;;10.23;6.77;;;;;;;;;;5032765;28;20519;-77
2022/06/26 03:46:11;;;;;;;9.53;6.50;;;;;;;;;;5033127;28;20512;-76
2022/06/26 03:48:37;;;;;;;15.50;7.10;;;;;;;;;;5033207;28;20417;-77
2022/06/26 03:51:04;;;;;;;7.93;5.90;;;;;;;;;;5033042;28;20388;-77
2022/06/26 03:53:30;;;;;;;12.77;5.83;;;;;;;;;;5032430;28;20409;-76
2022/06/26 03:55:56;;;;;;;8.53;5.73;;;;;;;;;;5032878;28;20472;-76
2022/06/26 03:58:23;;;;;;;5.90;5.30;;;;;;;;;;5032946;28;20409;-77
2022/06/26 04:00:49;;;;;;;10.10;5.23;;;;;;;;;;5032980;28;20422;-77
2022/06/26 04:03:15;;;;;;;9.50;5.60;;;;;;;;;;5032364;28;20411;-77
2022/06/26 04:05:41;;;;;;;10.73;5.03;;;;;;;;;;5032499;28;20778;-77
2022/06/26 04:08:08;;;;;;;9.77;5.80;;;;;;;;;;5032870;28;20786;-77
2022/06/26 04:10:34;;;;;;;9.70;5.73;;;;;;;;;;5032792;28;20832;-76
2022/06/26 04:13:00;;;;;;;10.57;5.10;;;;;;;;;;5031566;28;20897;-77
2022/06/26 04:15:28;;;;;;;10.50;4.97;;;;;;;;;;5032466;28;20461;-77
2022/06/26 04:17:54;;;;;;;11.73;5.70;;;;;;;;;;5031231;28;20392;-77
2022/06/26 04:20:20;;;;;;;8.30;5.20;;;;;;;;;;5032801;28;20387;-77
2022/06/26 04:22:55;;;;;;;5.60;5.10;;;;;;;;;;5031237;28;20394;-77
2022/06/26 04:25:21;;;;;;;12.93;6.30;;;;;;;;;;5032612;28;20471;-77
2022/06/26 04:27:47;;;;;;;9.70;5.97;;;;;;;;;;5031152;28;20416;-77
2022/06/26 04:30:13;;;;;;;6.60;5.40;;;;;;;;;;5032309;28;20891;-77
2022/06/26 04:32:38;;;;;;;13.43;6.40;;;;;;;;;;5032173;28;20503;-77
2022/06/26 04:35:05;;;;;;;10.57;5.63;;;;;;;;;;5032112;28;20408;-77
2022/06/26 04:37:31;;;;;;;7.70;6.43;;;;;;;;;;5032390;28;20478;-77
2022/06/26 04:39:56;;;;;;;12.47;6.80;;;;;;;;;;5032149;28;20460;-78
2022/06/26 04:42:22;;;;;;;12.53;5.60;;;;;;;;;;5032519;28;20886;-78
2022/06/26 04:44:48;;;;;;;10.13;5.80;;;;;;;;;;5031886;28;20433;-78
2022/06/26 04:47:14;;;;;;;9.57;5.70;;;;;;;;;;5032271;28;20387;-77
2022/06/26 04:49:40;;;;;;;10.23;5.90;;;;;;;;;;5032299;28;20436;-77
2022/06/26 04:52:06;;;;;;;8.97;5.33;;;;;;;;;;5032129;28;20391;-77
2022/06/26 04:54:32;;;;;;;11.77;5.10;;;;;;;;;;5031957;28;20420;-77
2022/06/26 04:56:58;;;;;;;11.93;5.90;;;;;;;;;;5032210;28;20838;-77
2022/06/26 04:59:24;;;;;;;6.53;5.93;;;;;;;;;;5032230;28;20467;-77
2022/06/26 05:01:50;;;;;;;7.07;5.83;;;;;;;;;;5032286;28;20409;-77
2022/06/26 05:04:16;;;;;;;10.80;6.37;;;;;;;;;;5031938;28;20413;-78
2022/06/26 05:06:42;;;;;;;13.47;6.50;;;;;;;;;;5032321;28;20409;-77
2022/06/26 05:09:08;;;;;;;6.77;6.07;;;;;;;;;;5032235;28;20397;-77
2022/06/26 05:11:34;;;;;;;7.40;5.47;;;;;;;;;;5032171;28;20420;-77
2022/06/26 05:14:00;;;;;;;7.90;5.10;;;;;;;;;;5031678;28;20384;-77
2022/06/26 05:16:26;;;;;;;7.07;4.80;;;;;;;;;;5030677;28;20451;-77
2022/06/26 05:18:52;;;;;;;5.87;5.27;;;;;;;;;;5032100;28;20808;-77
2022/06/26 05:21:18;;;;;;;6.17;4.03;;;;;;;;;;5032038;28;20415;-77
2022/06/26 05:23:44;;;;;;;7.17;5.07;;;;;;;;;;5031749;28;20412;-76
2022/06/26 05:26:10;;;;;;;10.57;4.33;;;;;;;;;;5035599;28;20787;-77
2022/06/26 05:28:36;;;;;;;8.00;5.00;;;;;;;;;;5035558;28;20563;-77
2022/06/26 05:31:02;;;;;;;4.83;3.90;;;;;;;;;;5034214;28;20391;-76
2022/06/26 05:33:28;;;;;;;5.00;4.60;;;;;;;;;;5035094;28;20404;-76
2022/06/26 05:35:54;;;;;;;6.10;4.03;;;;;;;;;;5034031;28;20495;-76
2022/06/26 05:38:20;;;;;;;8.50;3.90;;;;;;;;;;5034083;28;20957;-77
2022/06/26 05:40:46;;;;;;;10.30;3.70;;;;;;;;;;5035400;28;20388;-76
2022/06/26 05:43:12;;;;;;;5.70;3.67;;;;;;;;;;5034997;28;20395;-77
2022/06/26 05:45:38;;;;;;;5.90;3.20;;;;;;;;;;5035096;28;20429;-77
2022/06/26 05:48:04;;;;;;;5.43;3.10;;;;;;;;;;5035076;28;20417;-76
2022/06/26 05:50:30;;;;;;;4.20;3.80;;;;;;;;;;5035161;28;20761;-76
2022/06/26 05:52:56;;;;;;;6.37;4.50;;;;;;;;;;5034750;28;20392;-77
2022/06/26 05:55:22;;;;;;;4.83;3.27;;;;;;;;;;5034804;28;20407;-76
2022/06/26 05:57:48;;;;;;;7.27;3.60;;;;;;;;;;5035073;28;20416;-76
2022/06/26 06:00:15;;;;;;;5.37;3.80;;;;;;;;;;5034876;28;20437;-77
2022/06/26 06:02:41;;;;;;;5.07;3.03;;;;;;;;;;5034908;28;20409;-76
2022/06/26 06:05:07;;;;;;;5.40;3.13;;;;;;;;;;5034554;28;20429;-76
2022/06/26 06:07:36;;;;;;;4.73;3.00;;;;;;;;;;5034836;28;20389;-77
2022/06/26 06:10:02;;;;;;;4.10;3.30;;;;;;;;;;5033572;28;20384;-76
2022/06/26 06:12:28;;;;;;;4.90;3.27;;;;;;;;;;5033416;28;20414;-76
2022/06/26 06:14:53;;;;;;;4.23;3.23;;;;;;;;;;5034214;28;20749;-76
2022/06/26 06:17:40;;;;;;;7.40;3.60;;;;;;;;;;5034510;28;20464;-77
2022/06/26 06:20:08;;;;;;;2.33;2.07;;;;;;;;;;5034548;28;20413;-76
2022/06/26 06:22:34;;;;;;;6.03;2.80;;;;;;;;;;5034338;28;20771;-77
2022/06/26 06:25:00;;;;;;;4.87;2.73;;;;;;;;;;5034150;28;20438;-76
2022/06/26 06:27:26;;;;;;;4.30;2.87;;;;;;;;;;5034389;28;20380;-76
2022/06/26 06:29:52;;;;;;;5.30;2.60;;;;;;;;;;5034409;28;20380;-76
2022/06/26 06:32:18;;;;;;;4.77;3.03;;;;;;;;;;5034080;28;20415;-76
2022/06/26 06:34:44;;;;;;;5.03;2.30;;;;;;;;;;5032506;28;20415;-76
2022/06/26 06:37:10;;;;;;;7.90;3.00;;;;;;;;;;5033462;28;20451;-76
2022/06/26 06:39:36;;;;;;;2.27;2.03;;;;;;;;;;5034199;28;20413;-77
2022/06/26 06:42:03;;;;;;;3.10;2.47;;;;;;;;;;5034171;28;20380;-77
2022/06/26 06:44:29;;;;;;;5.50;2.57;;;;;;;;;;5033909;28;20404;-76
2022/06/26 06:46:55;;;;;;;2.10;1.80;;;;;;;;;;5033935;28;20817;-76
2022/06/26 06:49:21;;;;;;;8.70;2.60;;;;;;;;;;5034088;28;20417;-76
2022/06/26 06:51:47;;;;;;;5.77;1.70;;;;;;;;;;5034040;28;20399;-77
2022/06/26 06:54:13;;;;;;;2.10;1.90;;;;;;;;;;5033529;28;20763;-77
2022/06/26 06:56:40;;;;;;;3.30;1.97;;;;;;;;;;5033593;28;20443;-76
2022/06/26 06:59:06;;;;;;;3.80;1.40;;;;;;;;;;5033545;28;20417;-76
2022/06/26 07:01:32;;;;;;;4.13;2.53;;;;;;;;;;5032449;28;20782;-77
2022/06/26 07:03:58;;;;;;;2.00;1.67;;;;;;;;;;5033297;28;20417;-76
2022/06/26 07:06:25;;;;;;;4.23;1.70;;;;;;;;;;5032144;28;20499;-76
2022/06/26 07:08:52;;;;;;;2.90;1.60;;;;;;;;;;5033406;28;20396;-76
2022/06/26 07:11:19;;;;;;;6.10;1.90;;;;;;;;;;5033327;28;20419;-76
2022/06/26 07:13:45;;;;;;;5.00;1.67;;;;;;;;;;5033306;28;20491;-77
2022/06/26 07:16:11;;;;;;;4.27;2.40;;;;;;;;;;5033163;28;20552;-76
2022/06/26 07:18:37;;;;;;;4.30;1.60;;;;;;;;;;5033313;28;20380;-76
2022/06/26 07:21:03;;;;;;;3.80;2.00;;;;;;;;;;5033234;28;20384;-77
2022/06/26 07:23:30;;;;;;;1.93;1.70;;;;;;;;;;5032951;28;20414;-76
2022/06/26 07:25:56;;;;;;;3.63;1.73;;;;;;;;;;5033377;28;20423;-77
2022/06/26 07:28:22;;;;;;;4.00;1.60;;;;;;;;;;5031983;28;20853;-77
2022/06/26 07:30:48;;;;;;;4.70;1.40;;;;;;;;;;5033333;28;20528;-77
2022/06/26 07:35:59;;;;;;;1.50;1.37;;;;;;;;;;5033435;28;20467;-76
2022/06/26 07:38:25;;;;;;;3.03;1.47;;;;;;;;;;5033335;28;20412;-76
2022/06/26 07:40:52;;;;;;;1.50;1.13;;;;;;;;;;5033330;28;20384;-77
2022/06/26 07:43:18;;;;;;;2.70;1.23;;;;;;;;;;5032589;28;20475;-77
2022/06/26 07:45:44;;;;;;;3.10;1.80;;;;;;;;;;5033222;28;20508;-77
2022/06/26 07:48:10;;;;;;;2.07;1.57;;;;;;;;;;5032915;28;20398;-76
2022/06/26 07:50:36;;;;;;;3.33;1.73;;;;;;;;;;5033159;28;20388;-77
2022/06/26 07:53:02;;;;;;;2.73;1.63;;;;;;;;;;5032629;28;20496;-78
2022/06/26 07:55:29;;;;;;;4.70;1.50;;;;;;;;;;5031533;28;20477;-77
2022/06/26 07:57:55;;;;;;;3.93;1.50;;;;;;;;;;5031665;28;20396;-77
2022/06/26 08:00:21;;;;;;;1.50;1.40;;;;;;;;;;5032883;28;20885;-77
2022/06/26 08:02:47;;;;;;;1.83;1.40;;;;;;;;;;5031504;28;20904;-77
2022/06/26 08:05:13;;;;;;;1.83;1.23;;;;;;;;;;5030992;28;20434;-78
2022/06/26 08:07:39;;;;;;;2.23;1.37;;;;;;;;;;5032500;28;20421;-77
2022/06/26 08:10:05;;;;;;;2.87;1.30;;;;;;;;;;5032570;28;20497;-78
2022/06/26 08:12:31;;;;;;;5.47;1.50;;;;;;;;;;5031270;28;20396;-78
2022/06/26 08:14:58;;;;;;;4.63;1.20;;;;;;;;;;5032168;28;20495;-77
2022/06/26 08:17:24;;;;;;;3.23;1.50;;;;;;;;;;5032195;28;20517;-78
2022/06/26 08:19:50;;;;;;;2.03;1.33;;;;;;;;;;5032481;28;20443;-78
2022/06/26 08:22:16;;;;;;;2.83;1.23;;;;;;;;;;5032360;28;20438;-77
2022/06/26 08:24:42;;;;;;;3.40;1.10;;;;;;;;;;5032005;28;20801;-77
2022/06/26 08:27:08;;;;;;;4.07;1.93;;;;;;;;;;5032657;28;20917;-77
2022/06/26 08:29:35;;;;;;;3.67;1.90;;;;;;;;;;5032351;28;20409;-78
2022/06/26 08:32:01;;;;;;;4.10;1.60;;;;;;;;;;5032348;28;20411;-77
2022/06/26 08:34:27;;;;;;;2.10;1.60;;;;;;;;;;5030930;28;20426;-77
2022/06/26 08:36:54;;;;;;;1.77;1.50;;;;;;;;;;5032607;28;20475;-78
2022/06/26 08:39:20;;;;;;;3.20;1.90;;;;;;;;;;5032739;28;20406;-77
2022/06/26 08:41:46;;;;;;;1.40;1.30;;;;;;;;;;5031105;28;20472;-77
2022/06/26 08:44:13;;;;;;;2.67;1.40;;;;;;;;;;5032036;28;20489;-77
2022/06/26 08:46:40;;;;;;;2.27;1.33;;;;;;;;;;5030947;28;20448;-77
2022/06/26 08:49:09;;;;;;;1.20;1.10;;;;;;;;;;5032619;28;20475;-78
2022/06/26 08:51:36;;;;;;;2.13;1.60;;;;;;;;;;5032220;28;20957;-77
2022/06/26 08:54:03;;;;;;;1.97;1.70;;;;;;;;;;5030490;28;20409;-77
2022/06/26 08:56:29;;;;;;;3.03;1.37;;;;;;;;;;5032272;28;20511;-78
2022/06/26 08:58:55;;;;;;;2.23;1.50;;;;;;;;;;5032365;28;20506;-77
2022/06/26 09:01:21;;;;;;;3.40;1.57;;;;;;;;;;5034808;28;20857;-77
2022/06/26 09:03:47;;;;;;;3.00;1.40;;;;;;;;;;5034348;28;20586;-77
2022/06/26 09:06:12;;;;;;;2.00;1.43;;;;;;;;;;5035953;28;20934;-77
2022/06/26 09:08:45;;;;;;;2.80;1.53;;;;;;;;;;5035991;28;20428;-77
2022/06/26 09:11:11;;;;;;;1.60;1.40;;;;;;;;;;5035822;28;20425;-78
2022/06/26 09:13:42;;;;;;;4.97;2.00;;;;;;;;;;5035448;28;20463;-79
2022/06/26 09:16:08;;;;;;;2.43;1.60;;;;;;;;;;5035504;28;20841;-78
2022/06/26 09:18:36;;;;;;;1.40;1.30;;;;;;;;;;5034676;28;20417;-78
2022/06/26 09:21:04;;;;;;;3.97;1.30;;;;;;;;;;5035685;28;20405;-78
2022/06/26 09:23:31;;;;;;;2.50;1.53;;;;;;;;;;5035276;28;20409;-78
2022/06/26 09:25:57;;;;;;;1.53;1.37;;;;;;;;;;5035508;28;20809;-76
2022/06/26 09:28:23;;;;;;;3.50;1.30;;;;;;;;;;5035559;28;20439;-77
2022/06/26 09:30:50;;;;;;;2.93;1.63;;;;;;;;;;5035497;28;20471;-77
2022/06/26 09:33:17;;;;;;;2.20;1.30;;;;;;;;;;5035001;28;20509;-76
2022/06/26 09:35:43;;;;;;;2.97;1.23;;;;;;;;;;5035421;28;20466;-77
2022/06/26 09:38:09;;;;;;;2.67;1.50;;;;;;;;;;5035501;28;20477;-78
2022/06/26 09:40:35;;;;;;;2.23;1.60;;;;;;;;;;5035458;28;20415;-76
2022/06/26 09:43:01;;;;;;;3.43;1.40;;;;;;;;;;5033597;28;20414;-78
2022/06/26 09:45:37;;;;;;;2.80;1.23;;;;;;;;;;5035319;28;20515;-77
2022/06/26 09:48:04;;;;;;;4.10;1.30;;;;;;;;;;5034957;28;20406;-77
2022/06/26 09:50:30;;;;;;;1.90;1.70;;;;;;;;;;5034822;28;20761;-77
2022/06/26 09:52:57;;;;;;;1.93;1.33;;;;;;;;;;5034600;28;20417;-78
2022/06/26 09:55:23;;;;;;;2.27;1.60;;;;;;;;;;5033471;28;20483;-76
2022/06/26 09:57:49;;;;;;;3.93;1.80;;;;;;;;;;5035002;28;20848;-76
2022/06/26 10:00:15;;;;;;;2.60;1.53;;;;;;;;;;5034829;28;20419;-77
2022/06/26 10:08:14;;;;;;;2.90;1.60;;;;;;;;;;5035116;28;20420;-77
2022/06/26 10:10:41;;;;;;;1.73;1.13;;;;;;;;;;5033312;28;20445;-76
2022/06/26 10:13:08;;;;;;;6.93;1.60;;;;;;;;;;5034430;28;20413;-74
2022/06/26 10:15:36;;;;;;;3.33;1.57;;;;;;;;;;5034498;28;20473;-78
2022/06/26 10:18:21;;;;;;;1.93;1.27;;;;;;;;;;5034540;28;20905;-76
2022/06/26 10:20:48;;;;;;;3.90;1.83;;;;;;;;;;5034862;28;20414;-76
2022/06/26 10:23:30;;;;;;;2.40;1.40;;;;;;;;;;5034273;28;20506;-76
2022/06/26 10:25:56;;;;;;;2.50;1.20;;;;;;;;;;5034636;28;20485;-76
2022/06/26 10:28:22;;;;;;;3.77;1.40;;;;;;;;;;5034344;28;20445;-77
2022/06/26 10:30:48;;;;;;;1.63;1.20;;;;;;;;;;5034587;28;20496;-76
2022/06/26 10:33:14;;;;;;;2.23;1.30;;;;;;;;;;5034022;28;20533;-76
2022/06/26 10:35:46;;;;;;;1.77;1.40;;;;;;;;;;5032982;28;20827;-76
2022/06/26 10:38:19;;;;;;;2.30;1.30;;;;;;;;;;5034113;28;20500;-76
2022/06/26 10:43:56;;;;;;;2.43;1.20;;;;;;;;;;5034589;28;20744;-76
2022/06/26 10:46:22;;;;;;;2.00;1.30;;;;;;;;;;5033519;28;20441;-77
2022/06/26 10:48:55;;;;;;;3.33;1.60;;;;;;;;;;5034050;28;20525;-78
2022/06/26 10:51:25;;;;;;;1.90;1.33;;;;;;;;;;5033929;28;20445;-77
2022/06/26 10:53:51;;;;;;;2.50;1.57;;;;;;;;;;5033683;28;20449;-75
2022/06/26 10:56:17;;;;;;;3.20;1.57;;;;;;;;;;5033590;28;20499;-76
2022/06/26 10:58:45;;;;;;;2.13;1.40;;;;;;;;;;5033721;28;20413;-76
2022/06/26 11:01:12;;;;;;;1.20;1.07;;;;;;;;;;5034024;28;20413;-76
2022/06/26 11:03:38;;;;;;;2.57;1.70;;;;;;;;;;5033570;28;20520;-75
2022/06/26 11:06:08;;;;;;;2.00;1.30;;;;;;;;;;5033694;28;20441;-76
2022/06/26 11:08:38;;;;;;;2.90;1.23;;;;;;;;;;5033748;28;20492;-75
2022/06/26 11:11:14;;;;;;;2.67;1.30;;;;;;;;;;5033565;28;20410;-76
2022/06/26 11:13:53;;;;;;;5.20;1.53;;;;;;;;;;5033388;28;20412;-76
2022/06/26 11:16:33;;;;;;;4.43;1.60;;;;;;;;;;5033278;28;20977;-74
2022/06/26 11:18:59;;;;;;;3.87;1.70;;;;;;;;;;5033405;28;20441;-75
2022/06/26 11:21:26;;;;;;;2.77;1.60;;;;;;;;;;5033715;28;20787;-76
2022/06/26 11:23:53;;;;;;;1.60;1.50;;;;;;;;;;5036304;28;20507;-75
2022/06/26 11:26:20;;;;;;;1.73;1.47;;;;;;;;;;5039236;28;20512;-77
2022/06/26 11:28:46;;;;;;;2.20;1.77;;;;;;;;;;5033425;28;20415;-76
2022/06/26 11:31:19;;;;;;;1.83;1.33;;;;;;;;;;5052803;28;20935;-76
2022/06/26 11:33:45;;;;;;;2.93;1.30;;;;;;;;;;5052900;28;20459;-76
2022/06/26 11:36:13;;;;;;;2.73;1.60;;;;;;;;;;5051732;28;20468;-76
2022/06/26 11:38:40;;;;;;;3.97;1.63;;;;;;;;;;5053272;28;20407;-76
2022/06/26 11:41:07;;;;;;;2.10;1.50;;;;;;;;;;5052216;28;20419;-76
2022/06/26 11:43:33;;;;;;;3.37;1.40;;;;;;;;;;5032821;28;20410;-77
2022/06/26 11:46:01;;;;;;;2.47;1.70;;;;;;;;;;5032985;28;20437;-76
2022/06/26 11:48:27;;;;;;;3.43;1.90;;;;;;;;;;5033247;28;20754;-76
2022/06/26 11:50:54;;;;;;;2.13;1.53;;;;;;;;;;5033134;28;20418;-76
2022/06/26 11:53:28;;;;;;;1.70;1.50;;;;;;;;;;5031477;28;20412;-75
2022/06/26 11:55:55;;;;;;;2.80;1.40;;;;;;;;;;5032796;28;20439;-76
2022/06/26 11:58:22;;;;;;;4.80;1.80;;;;;;;;;;5032843;28;20380;-76
2022/06/26 12:00:49;;;;;;;3.47;1.80;;;;;;;;;;5032858;28;20380;-76
2022/06/26 12:03:15;;;;;;;4.17;1.40;;;;;;;;;;5031192;28;20463;-75
2022/06/26 12:05:42;;;;;;;1.83;1.60;;;;;;;;;;5032786;28;20499;-76
2022/06/26 12:08:16;;;;;;;2.43;1.50;;;;;;;;;;5032782;28;20445;-76
2022/06/26 12:10:42;;;;;;;4.07;1.90;;;;;;;;;;5032439;28;20409;-77
2022/06/26 12:13:08;;;;;;;4.53;1.80;;;;;;;;;;5032198;28;20446;-76
2022/06/26 12:15:34;;;;;;;2.77;1.70;;;;;;;;;;5032307;28;20949;-76
2022/06/26 12:18:05;;;;;;;2.07;1.87;;;;;;;;;;5032461;28;20404;-76
2022/06/26 12:20:38;;;;;;;2.10;1.60;;;;;;;;;;5032491;28;20924;-76
2022/06/26 12:23:05;;;;;;;4.10;1.50;;;;;;;;;;5030545;28;20913;-76
2022/06/26 12:25:32;;;;;;;5.47;2.60;;;;;;;;;;5032376;28;20429;-77
2022/06/26 12:27:59;;;;;;;4.13;1.93;;;;;;;;;;5032544;28;20388;-76
2022/06/26 12:30:27;;;;;;;5.27;2.10;;;;;;;;;;5032505;28;20429;-78
2022/06/26 12:32:53;;;;;;;4.87;2.13;;;;;;;;;;5032042;28;20535;-78
2022/06/26 12:35:19;;;;;;;8.00;2.70;;;;;;;;;;5034577;28;20421;-78
2022/06/26 12:37:45;;;;;;;4.40;2.10;;;;;;;;;;5036623;28;20455;-79
2022/06/26 12:40:12;;;;;;;3.37;2.10;;;;;;;;;;5036304;28;20836;-77
2022/06/26 12:42:38;;;;;;;12.60;9.90;;;;;;;;;;5036391;28;20780;-77
2022/06/26 12:45:04;;;;;;;6.67;3.27;;;;;;;;;;5036020;28;20429;-78
2022/06/26 12:47:31;;;;;;;7.20;2.93;;;;;;;;;;5036008;28;20754;-81
2022/06/26 12:49:57;;;;;;;4.80;2.10;;;;;;;;;;5036292;28;20795;-77
2022/06/26 12:52:24;;;;;;;4.10;2.20;;;;;;;;;;5034219;28;20507;-79
2022/06/26 12:54:50;;;;;;;4.30;2.73;;;;;;;;;;5035993;28;20489;-77
2022/06/26 12:57:16;;;;;;;2.33;2.07;;;;;;;;;;5036022;28;20464;-80
2022/06/26 12:59:42;;;;;;;6.60;2.63;;;;;;;;;;5035937;28;20392;-79
2022/06/26 13:02:09;;;;;;;2.60;2.00;;;;;;;;;;5036227;28;20384;-80
2022/06/26 13:04:35;;;;;;;4.23;2.67;;;;;;;;;;5035639;28;20864;-80
2022/06/26 13:07:01;;;;;;;3.73;2.20;;;;;;;;;;5036158;28;20412;-77
2022/06/26 13:09:28;;;;;;;3.30;2.03;;;;;;;;;;5034504;28;20765;-81
2022/06/26 13:11:53;;;;;;;4.30;2.10;;;;;;;;;;5034442;28;20425;-81
2022/06/26 13:14:19;;;;;;;1.90;1.63;;;;;;;;;;5035415;28;20924;-80
2022/06/26 13:16:46;;;;;;;3.53;2.03;;;;;;;;;;5035640;28;20472;-80
2022/06/26 13:19:12;;;;;;;2.60;2.00;;;;;;;;;;5038421;28;20784;-80
2022/06/26 13:21:38;;;;;;;3.67;2.10;;;;;;;;;;5044097;28;20813;-79
2022/06/26 13:24:05;;;;;;;2.60;2.20;;;;;;;;;;5054109;28;20452;-80
2022/06/26 13:26:31;;;;;;;4.17;2.13;;;;;;;;;;5040488;28;20866;-78
2022/06/26 13:28:57;;;;;;;3.27;2.20;;;;;;;;;;5035593;28;20421;-78
2022/06/26 13:31:25;;;;;;;4.60;2.50;;;;;;;;;;5035509;28;20414;-78
2022/06/26 13:33:51;;;;;;;2.83;2.00;;;;;;;;;;5035153;28;20868;-81
2022/06/26 13:36:17;;;;;;;4.30;2.20;;;;;;;;;;5035127;28;20471;-77
2022/06/26 13:38:44;;;;;;;5.37;2.93;;;;;;;;;;5049658;28;20386;-80
2022/06/26 13:41:10;;;;;;;3.07;2.60;;;;;;;;;;5055398;28;20383;-77
2022/06/26 13:43:36;;;;;;;2.50;2.10;;;;;;;;;;5055060;28;20415;-78
2022/06/26 13:46:02;;;;;;;4.80;2.40;;;;;;;;;;5053488;28;20541;-79
2022/06/26 13:48:29;;;;;;;4.50;2.47;;;;;;;;;;5053685;28;20392;-80
2022/06/26 13:50:55;;;;;;;3.97;2.50;;;;;;;;;;5055086;28;20411;-80
2022/06/26 13:53:21;;;;;;;2.73;2.10;;;;;;;;;;5054607;28;20865;-79
2022/06/26 13:55:50;;;;;;;2.80;2.13;;;;;;;;;;5054877;28;20435;-79
2022/06/26 13:58:17;;;;;;;4.00;2.40;;;;;;;;;;5055102;28;20383;-80
2022/06/26 14:00:43;;;;;;;6.00;2.63;;;;;;;;;;5054865;28;20415;-78
2022/06/26 14:03:09;;;;;;;6.97;2.50;;;;;;;;;;5054454;28;20933;-80
2022/06/26 14:05:35;;;;;;;2.70;2.50;;;;;;;;;;5054563;28;20791;-79
2022/06/26 14:08:01;;;;;;;7.60;3.50;;;;;;;;;;5036728;28;20922;-76
2022/06/26 14:10:27;;;;;;;6.87;3.63;;;;;;;;;;5054611;28;20383;-79
2022/06/26 14:12:53;;;;;;;3.53;2.53;;;;;;;;;;5053264;28;20419;-81
2022/06/26 14:15:19;;;;;;;7.80;3.33;;;;;;;;;;5054546;28;20410;-81
2022/06/26 14:17:45;;;;;;;5.63;3.57;;;;;;;;;;5052993;28;20847;-80
2022/06/26 14:20:12;;;;;;;3.63;2.70;;;;;;;;;;5053383;28;20398;-77
2022/06/26 14:28:07;;;;;;;6.73;2.33;;;;;;;;;;5037602;28;20411;-80
2022/06/26 14:30:33;;;;;;;2.73;2.30;;;;;;;;;;5036777;28;20918;-81
2022/06/26 14:32:59;;;;;;;4.40;2.40;;;;;;;;;;5052567;28;20497;-80
2022/06/26 14:35:25;;;;;;;8.73;2.40;;;;;;;;;;5054135;28;20444;-78
2022/06/26 14:37:51;;;;;;;3.77;2.60;;;;;;;;;;5053038;28;20930;-77
2022/06/26 14:40:17;;;;;;;7.10;2.70;;;;;;;;;;5036387;28;20416;-78
2022/06/26 14:42:44;;;;;;;2.97;2.60;;;;;;;;;;5034331;28;20402;-76
2022/06/26 14:45:10;;;;;;;2.83;2.57;;;;;;;;;;5032445;28;20414;-79
2022/06/26 14:47:36;;;;;;;3.77;2.20;;;;;;;;;;5034028;28;20426;-79
2022/06/26 14:50:03;;;;;;;2.87;2.50;;;;;;;;;;5033948;28;20915;-80
2022/06/26 14:52:29;;;;;;;4.60;2.60;;;;;;;;;;5033782;28;20417;-82
2022/06/26 14:54:55;;;;;;;4.00;2.83;;;;;;;;;;5033941;28;20414;-79